Portada
METAR-TAF:

METAR-TAF

Aeropuertos :

Albacete, España

Aeropuerto de Albacete

latitud: 38-57N, longitud: 001-51W, altitud: 702 m

Observación

El informe se hizo hace 17 minutos, a las 08:00 UTC
Viento 3 kt del este-noreste, variando entre noreste y este-sureste
Temperatura 9°C
Humedad 81%
Presión 1027 hPa
Visibilidad: 8000 m
Escasas nubes a una altura de 1100 ft

METAR: LEAB 280800Z 07003KT 040V110 8000 FEW011 09/06 Q1027 NOSIG

Hora: 10:17 (08:17 UTC)

Pronóstico

El informe se hizo hace 1 hora y 15 minutos, a las 07:02 UTC
Pronóstico válido del 28 a las 07 UTC al 28 a las 15 UTC
Viento 6 kt del oeste
Visibilidad 10 km o más
sin nubes por debajo de 1500 m y sin presencia de cumulonimbus.
Temporalmente
del 28 a las 07 UTC al 28 a las 09 UTC
Cielo nuboso a una altura de 1400 ft

TAF: LEAB 280702Z 2807/2815 27006KT CAVOK TEMPO 2807/2809 BKN014

Observaciones y pronósticos meteorológicos de más de 4000 aeropuertos (mensajes METAR y TAF).

Los puntos amarillos y rojos representan las estaciones disponibles.

Ponga el ratón en el punto deseado para ver el nombre de la estación.

Haga clic para ver las observaciones y los pronósticos meteorológicos.

Para cambiar el mapa : haga clic en los botones verdes con una cruz de color negro para hacer un zoom, en el botón verde con un guión para alejar o en las flechas verdes para mapas adyacentes.


METAR-TAF: